Airfield :
LOGIN :

Register | Disclaimer

   EN    FR    IT 

 










Legend :    VFR   Marginal VFR   IFR   Intensive IFR   Very Intensive IFR
Visi :
Ceiling :
>= 8 km
>= 3000ft
5 to 8 km
1000 to 3000 ft
1500m to 5 km
500 to 1000 ft
800 to 1500m
200 to 500 ft
< 800m
< 200 ft
Symbols :   Thunderstorms  Fog  Heavy snow  Heavy precipitations  Wind > 20 kt
SIGMETs :     Misc.  Thunderstorms  Icing  Turbulence  Mountain Waves  Volcanic Ashes






- Airport Elevation : 788 ft
- IATA code : DCM


LFCK - Castres-Mazamet

CURRENT METAR :
  • 092300Z AUTO 10009KT CAVOK 27/18 Q1014

EXPIRED METARs :
  • 092230Z AUTO 09005KT 050V130 CAVOK 26/18 Q1014
  • 092200Z AUTO VRB02KT CAVOK 27/18 Q1014
  • 092130Z AUTO 11009KT CAVOK 27/19 Q1014
  • 092100Z AUTO 11013KT CAVOK 28/19 Q1014 BECMG VRB03KT
  • 092030Z AUTO 11014KT CAVOK 28/19 Q1014 BECMG VRB03KT

TAF AMD TAF LFCK
Valid from the 09 at 20:00 until the 10 at 03:00 UTC


092016Z 0920/1003 11013KT CAVOK
BECMG 0920/0922 VRB03KT



MET'MAP, your aeronautical weather chart ! - Copyright ORBIFLY December 2007 - Disclaimer

ORBIFLY MET'MAP TEAM :

Programming & Development : Alexandra Zaïnal
Concept & original design : Baudouin d'Aumeries
Assistance for programming : Marc-Olivier Méhu
Technical & hardware support : Manuel Goepfert

Contact : metmap@orbifly.com




SOURCES & CREDITS :

   NOAA